Time;durP1;ratioP1;P1;durP2;ratioP2;P2;SDS_P1;SDS_P2;PMS_P1;PMS_P2;Temp;Humidity;BMP_temperature;BMP_pressure;BME280_temperature;BME280_humidity;BME280_pressure;Samples;Min_cycle;Max_cycle;Signal;HPM_P1;HPM_P2
2023/10/29 00:00:43;;;;;;;0.30;0.30;;;10.60;99.90;;;;;;5017744;28;20395;-86
2023/10/29 00:03:10;;;;;;;0.10;0.10;;;10.60;99.90;;;;;;5019433;28;20034;-88
2023/10/29 00:05:36;;;;;;;0.00;0.00;;;10.50;99.90;;;;;;5019412;28;20049;-86
2023/10/29 00:08:02;;;;;;;0.77;0.55;;;10.70;99.90;;;;;;5018708;28;20412;-85
2023/10/29 00:10:27;;;;;;;0.20;0.20;;;10.60;99.90;;;;;;5020382;28;20049;-83
2023/10/29 00:12:53;;;;;;;0.30;0.30;;;10.60;99.90;;;;;;5023977;28;20545;-82
2023/10/29 00:15:19;;;;;;;0.00;0.00;;;10.60;99.90;;;;;;5023918;28;20033;-82
2023/10/29 00:17:44;;;;;;;0.22;0.13;;;10.60;99.90;;;;;;5023359;28;20554;-82
2023/10/29 00:20:10;;;;;;;0.10;0.10;;;10.80;99.90;;;;;;5023195;28;20073;-82
2023/10/29 00:22:35;;;;;;;0.00;0.00;;;10.70;99.90;;;;;;5023361;28;20674;-80
2023/10/29 00:25:01;;;;;;;0.00;0.00;;;10.70;99.90;;;;;;5022654;28;20050;-80
2023/10/29 00:27:27;;;;;;;0.43;0.40;;;10.70;99.90;;;;;;5023073;28;20523;-80
2023/10/29 00:29:52;;;;;;;0.20;0.20;;;10.70;99.90;;;;;;5022048;28;20192;-82
2023/10/29 00:32:20;;;;;;;0.65;0.57;;;10.70;99.90;;;;;;5023232;28;20048;-83
2023/10/29 00:34:47;;;;;;;0.00;0.00;;;10.70;99.90;;;;;;5023289;28;20037;-82
2023/10/29 00:37:13;;;;;;;0.00;0.00;;;10.70;99.90;;;;;;5023438;28;20056;-83
2023/10/29 00:39:39;;;;;;;0.40;0.40;;;10.70;99.90;;;;;;5023469;28;20070;-83
2023/10/29 00:42:05;;;;;;;0.00;0.00;;;10.70;99.90;;;;;;5022677;28;20136;-82
2023/10/29 00:44:30;;;;;;;1.40;0.10;;;10.80;99.90;;;;;;5023558;28;20042;-82
2023/10/29 00:46:57;;;;;;;0.00;0.00;;;10.70;99.90;;;;;;5023696;28;20061;-83
2023/10/29 00:49:22;;;;;;;0.63;0.45;;;10.80;99.90;;;;;;5023481;28;20056;-83
2023/10/29 00:51:49;;;;;;;0.00;0.00;;;10.80;99.90;;;;;;5022684;28;20117;-82
2023/10/29 00:54:15;;;;;;;0.00;0.00;;;10.80;99.90;;;;;;5023151;28;20049;-82
2023/10/29 00:56:41;;;;;;;0.20;0.20;;;10.80;99.90;;;;;;5022680;28;20046;-81
2023/10/29 00:59:07;;;;;;;0.32;0.20;;;10.80;99.90;;;;;;5024278;28;20096;-81
2023/10/29 01:01:33;;;;;;;0.00;0.00;;;10.80;99.90;;;;;;5023387;28;20033;-81
2023/10/29 01:03:59;;;;;;;0.20;0.20;;;10.80;99.90;;;;;;5021755;28;20053;-83
2023/10/29 01:06:26;;;;;;;0.20;0.20;;;10.90;99.90;;;;;;5023547;28;20053;-82
2023/10/29 01:08:52;;;;;;;0.40;0.30;;;10.90;99.90;;;;;;5023371;28;20114;-82
2023/10/29 01:11:18;;;;;;;0.10;0.10;;;10.90;99.90;;;;;;5022942;28;20116;-82
2023/10/29 01:13:44;;;;;;;0.77;0.60;;;10.90;99.90;;;;;;5022769;28;20073;-82
2023/10/29 01:16:09;;;;;;;0.13;0.13;;;11.00;99.90;;;;;;5021284;28;20046;-81
2023/10/29 01:18:35;;;;;;;0.22;0.15;;;11.00;99.90;;;;;;5022534;28;20096;-82
2023/10/29 01:21:01;;;;;;;0.00;0.00;;;11.10;99.90;;;;;;5022047;28;20038;-83
2023/10/29 01:23:28;;;;;;;0.20;0.20;;;11.00;99.90;;;;;;5022185;28;20037;-82
2023/10/29 01:25:59;;;;;;;0.32;0.22;;;11.10;99.90;;;;;;5022237;28;20476;-82
2023/10/29 01:28:25;;;;;;;1.10;0.90;;;11.20;99.90;;;;;;5021590;28;20427;-82
2023/10/29 01:30:51;;;;;;;0.30;0.25;;;11.20;99.90;;;;;;5037509;28;20093;-82
2023/10/29 01:33:16;;;;;;;0.00;0.00;;;11.20;99.90;;;;;;5021637;28;20510;-82
2023/10/29 01:35:42;;;;;;;0.20;0.17;;;11.20;99.90;;;;;;5021768;28;20045;-82
2023/10/29 01:38:07;;;;;;;0.25;0.25;;;11.30;99.90;;;;;;5021486;28;20564;-82
2023/10/29 01:40:33;;;;;;;0.25;0.25;;;11.30;99.90;;;;;;5021064;28;20042;-82
2023/10/29 01:42:58;;;;;;;0.00;0.00;;;11.40;99.90;;;;;;5020229;28;20042;-81
2023/10/29 01:45:24;;;;;;;2.60;0.38;;;12.10;99.90;;;;;;5020823;28;20045;-82
2023/10/29 01:47:50;;;;;;;0.30;0.15;;;11.50;99.90;;;;;;5020888;28;20068;-83
2023/10/29 01:50:15;;;;;;;0.00;0.00;;;11.50;99.90;;;;;;5021077;28;20087;-84
2023/10/29 01:52:41;;;;;;;0.10;0.10;;;11.60;99.90;;;;;;5021195;28;20084;-81
2023/10/29 01:55:07;;;;;;;0.63;0.30;;;11.60;99.90;;;;;;5018951;28;20484;-81
2023/10/29 01:57:36;;;;;;;15.18;0.85;;;11.60;99.90;;;;;;5019370;28;20041;-82
2023/10/29 02:00:05;;;;;;;0.75;0.60;;;12.00;99.90;;;;;;5019912;28;20455;-81
2023/10/29 02:02:34;;;;;;;0.57;0.22;;;11.80;99.90;;;;;;5017290;28;20049;-82
2023/10/29 02:05:03;;;;;;;0.38;0.20;;;11.80;99.90;;;;;;5018247;28;20080;-81
2023/10/29 02:07:29;;;;;;;0.43;0.30;;;11.90;99.90;;;;;;5019592;28;20044;-81
2023/10/29 02:09:55;;;;;;;0.00;0.00;;;12.00;99.90;;;;;;5019544;28;20454;-81
2023/10/29 02:12:20;;;;;;;0.43;0.28;;;11.90;99.90;;;;;;5018635;28;20042;-82
2023/10/29 02:14:46;;;;;;;0.08;0.05;;;11.80;99.90;;;;;;5019859;28;20041;-82
2023/10/29 02:17:11;;;;;;;0.08;0.08;;;11.80;99.90;;;;;;5019957;28;20044;-81
2023/10/29 02:19:38;;;;;;;0.00;0.00;;;11.90;99.90;;;;;;5019015;28;20054;-82
2023/10/29 02:22:04;;;;;;;0.00;0.00;;;11.90;99.90;;;;;;5019519;28;20061;-82
2023/10/29 02:24:29;;;;;;;0.80;0.73;;;12.00;99.90;;;;;;5018781;28;20511;-82
2023/10/29 02:26:55;;;;;;;1.27;0.52;;;12.00;99.90;;;;;;5017808;28;20064;-82
2023/10/29 02:29:21;;;;;;;0.63;0.63;;;12.00;99.90;;;;;;5018791;28;20038;-81
2023/10/29 02:31:46;;;;;;;0.30;0.30;;;12.30;99.90;;;;;;5019731;28;20049;-82
2023/10/29 02:34:12;;;;;;;0.00;0.00;;;11.90;99.90;;;;;;5021300;28;20049;-82
2023/10/29 02:36:38;;;;;;;0.10;0.10;;;11.90;99.90;;;;;;5021094;28;20101;-81
2023/10/29 02:39:03;;;;;;;0.00;0.00;;;11.90;99.90;;;;;;5022061;28;20508;-81
2023/10/29 02:41:30;;;;;;;2.80;0.60;;;11.80;99.90;;;;;;5019720;28;20052;-81
2023/10/29 02:43:58;;;;;;;0.00;0.00;;;12.10;99.90;;;;;;5019208;28;20493;-82
2023/10/29 02:46:24;;;;;;;1.08;0.55;;;11.70;99.90;;;;;;5018248;28;20048;-82
2023/10/29 02:48:49;;;;;;;0.08;0.00;;;11.70;99.90;;;;;;5018101;28;20070;-82
2023/10/29 02:51:15;;;;;;;0.10;0.10;;;11.70;99.90;;;;;;5017609;28;20403;-82
2023/10/29 02:53:41;;;;;;;0.95;0.25;;;11.70;99.90;;;;;;5017744;28;20049;-82
2023/10/29 02:56:06;;;;;;;0.28;0.25;;;11.70;99.90;;;;;;5017826;28;20042;-81
2023/10/29 02:58:32;;;;;;;1.45;0.57;;;11.70;99.90;;;;;;5017368;28;20038;-82
2023/10/29 03:01:08;;;;;;;0.00;0.00;;;11.70;99.90;;;;;;5017208;28;20053;-82
2023/10/29 03:03:37;;;;;;;;;;;11.80;99.90;;;;;;5019122;28;20045;-83
2023/10/29 03:06:06;;;;;;;0.00;0.00;;;11.80;99.90;;;;;;5021112;28;19952;-83
2023/10/29 03:08:33;;;;;;;0.00;0.00;;;11.80;99.90;;;;;;5022166;28;20038;-82
2023/10/29 03:10:59;;;;;;;0.57;0.57;;;11.80;99.90;;;;;;5020777;28;20045;-82
2023/10/29 03:13:24;;;;;;;0.20;0.20;;;11.90;99.90;;;;;;5019466;28;20056;-82
2023/10/29 03:15:50;;;;;;;0.00;0.00;;;11.90;99.90;;;;;;5019915;28;20049;-82
2023/10/29 03:18:16;;;;;;;0.00;0.00;;;11.90;99.90;;;;;;5020595;28;20107;-81
2023/10/29 03:20:42;;;;;;;0.00;0.00;;;11.90;99.90;;;;;;5020139;28;20038;-82
2023/10/29 03:23:08;;;;;;;0.13;0.13;;;11.90;99.90;;;;;;5020392;28;20046;-82
2023/10/29 03:25:33;;;;;;;1.02;0.55;;;12.00;99.90;;;;;;5021410;28;20129;-82
2023/10/29 03:27:59;;;;;;;0.00;0.00;;;11.90;99.90;;;;;;5021460;28;20411;-82
2023/10/29 03:30:24;;;;;;;0.20;0.10;;;11.90;99.90;;;;;;5020052;28;20551;-83
2023/10/29 03:32:50;;;;;;;0.00;0.00;;;11.80;99.90;;;;;;5002641;28;20042;-82
2023/10/29 03:35:16;;;;;;;0.68;0.38;;;11.90;99.90;;;;;;5018722;28;20038;-82
2023/10/29 03:37:41;;;;;;;0.32;0.30;;;11.90;99.90;;;;;;5019620;28;20100;-82
2023/10/29 03:40:07;;;;;;;0.00;0.00;;;11.90;99.90;;;;;;5019245;28;20042;-82
2023/10/29 03:42:33;;;;;;;2.55;1.35;;;11.80;99.90;;;;;;5018534;28;20132;-82
2023/10/29 03:44:59;;;;;;;0.00;0.00;;;12.00;79.80;;;;;;5018259;28;20038;-82
2023/10/29 03:47:25;;;;;;;0.00;0.00;;;12.00;1.00;;;;;;5016626;28;20048;-82
2023/10/29 03:49:51;;;;;;;0.55;0.52;;;11.90;1.00;;;;;;5016676;28;20030;-81
2023/10/29 03:52:19;;;;;;;0.10;0.10;;;11.90;1.00;;;;;;5017080;28;20045;-82
2023/10/29 03:54:45;;;;;;;0.00;0.00;;;12.00;99.90;;;;;;5017799;28;20081;-82
2023/10/29 03:57:11;;;;;;;0.08;0.08;;;11.90;99.90;;;;;;5017672;28;20399;-81
2023/10/29 03:59:36;;;;;;;0.00;0.00;;;11.90;99.90;;;;;;5017165;28;20050;-82
2023/10/29 04:02:02;;;;;;;0.00;0.00;;;12.00;68.10;;;;;;5017059;28;20034;-82
2023/10/29 04:04:28;;;;;;;0.00;0.00;;;12.80;1.00;;;;;;5017200;28;20038;-81
2023/10/29 04:06:53;;;;;;;0.00;0.00;;;12.10;1.00;;;;;;5015831;28;20049;-81
2023/10/29 04:09:19;;;;;;;0.03;0.03;;;12.20;1.00;;;;;;5033036;28;20069;-81
2023/10/29 04:11:44;;;;;;;0.00;0.00;;;12.10;1.00;;;;;;5018000;28;20957;-82
2023/10/29 04:14:10;;;;;;;0.13;0.10;;;12.10;59.80;;;;;;5018464;28;20112;-81
2023/10/29 04:16:35;;;;;;;0.70;0.20;;;12.20;89.80;;;;;;5017037;28;20037;-81
2023/10/29 04:19:01;;;;;;;0.00;0.00;;;12.20;99.90;;;;;;5016152;28;20038;-82
2023/10/29 04:21:27;;;;;;;0.20;0.20;;;12.60;61.10;;;;;;5017193;28;20041;-83
2023/10/29 04:23:52;;;;;;;0.20;0.17;;;12.40;1.00;;;;;;5017880;28;20622;-82
2023/10/29 04:26:18;;;;;;;0.00;0.00;;;12.40;99.90;;;;;;5017798;28;20049;-83
2023/10/29 04:28:43;;;;;;;0.10;0.10;;;12.40;99.90;;;;;;5020993;28;20066;-82
2023/10/29 04:31:09;;;;;;;0.00;0.00;;;12.50;1.00;;;;;;5021959;28;20050;-83
2023/10/29 04:33:35;;;;;;;0.00;0.00;;;12.60;99.90;;;;;;5022026;28;20048;-82
2023/10/29 04:36:00;;;;;;;0.00;0.00;;;12.60;99.90;;;;;;5022608;28;20046;-82
2023/10/29 04:38:26;;;;;;;0.00;0.00;;;12.70;99.90;;;;;;5021964;28;20060;-82
2023/10/29 04:40:52;;;;;;;0.15;0.15;;;12.60;99.90;;;;;;5022517;28;20038;-82
2023/10/29 04:43:17;;;;;;;0.00;0.00;;;12.70;67.20;;;;;;5022124;28;20038;-82
2023/10/29 04:45:43;;;;;;;0.45;0.32;;;12.60;99.90;;;;;;5021457;28;20488;-81
2023/10/29 04:48:09;;;;;;;1.95;0.73;;;12.70;54.20;;;;;;5021831;28;20048;-81
2023/10/29 04:50:34;;;;;;;0.00;0.00;;;13.80;99.90;;;;;;5020661;28;20042;-82
2023/10/29 04:53:02;;;;;;;0.00;0.00;;;12.60;99.90;;;;;;5023218;28;20052;-83
2023/10/29 04:55:29;;;;;;;0.10;0.10;;;12.40;99.90;;;;;;5021467;28;20062;-82
2023/10/29 04:57:55;;;;;;;0.28;0.20;;;12.40;99.90;;;;;;5023477;28;20048;-82
2023/10/29 05:00:20;;;;;;;0.10;0.10;;;12.30;27.30;;;;;;5023307;28;20488;-81
2023/10/29 05:02:46;;;;;;;0.00;0.00;;;12.20;99.90;;;;;;5021901;28;20045;-81
2023/10/29 05:05:11;;;;;;;0.00;0.00;;;12.10;99.90;;;;;;5022332;28;20038;-81
2023/10/29 05:07:37;;;;;;;0.10;0.10;;;12.00;99.90;;;;;;5021685;28;20045;-81
2023/10/29 05:10:04;;;;;;;0.00;0.00;;;12.10;99.90;;;;;;5007859;28;20484;-81
2023/10/29 05:12:30;;;;;;;0.00;0.00;;;12.00;99.90;;;;;;5021548;28;20034;-81
2023/10/29 05:14:56;;;;;;;0.00;0.00;;;12.00;99.90;;;;;;5021373;28;20068;-82
2023/10/29 05:17:21;;;;;;;0.00;0.00;;;11.90;99.90;;;;;;5021323;28;20041;-81
2023/10/29 05:19:47;;;;;;;0.00;0.00;;;11.80;99.90;;;;;;5020882;28;20038;-81
2023/10/29 05:22:13;;;;;;;0.00;0.00;;;11.80;99.90;;;;;;5020848;28;20128;-81
2023/10/29 05:24:38;;;;;;;0.00;0.00;;;11.50;99.90;;;;;;5021460;28;20117;-81
2023/10/29 05:27:04;;;;;;;0.00;0.00;;;11.50;99.90;;;;;;5023507;28;20046;-82
2023/10/29 05:29:32;;;;;;;1.20;0.40;;;11.40;99.90;;;;;;5023826;28;20038;-82
2023/10/29 05:31:58;;;;;;;0.00;0.00;;;11.30;99.90;;;;;;5023613;28;20053;-84
2023/10/29 05:34:23;;;;;;;0.00;0.00;;;11.50;99.90;;;;;;5022093;28;20802;-82
2023/10/29 05:36:49;;;;;;;0.03;0.03;;;11.20;1.00;;;;;;5023186;28;20030;-82
2023/10/29 05:39:15;;;;;;;0.00;0.00;;;11.10;1.00;;;;;;5019510;28;20129;-81
2023/10/29 05:41:41;;;;;;;0.00;0.00;;;11.10;1.00;;;;;;5020828;28;20056;-80
2023/10/29 05:44:06;;;;;;;0.00;0.00;;;11.10;1.00;;;;;;5021438;28;20038;-82
2023/10/29 05:46:32;;;;;;;0.00;0.00;;;11.10;1.00;;;;;;5020993;28;20112;-81
2023/10/29 05:48:58;;;;;;;0.63;0.43;;;11.10;1.00;;;;;;5021104;28;20124;-81
2023/10/29 05:51:24;;;;;;;0.00;0.00;;;11.30;1.00;;;;;;5019778;28;20049;-81
2023/10/29 05:53:49;;;;;;;0.00;0.00;;;11.30;1.00;;;;;;5021842;28;20041;-81
2023/10/29 05:56:17;;;;;;;0.00;0.00;;;11.40;1.00;;;;;;5021417;28;20053;-80
2023/10/29 05:58:43;;;;;;;0.00;0.00;;;11.50;53.60;;;;;;5021598;28;20096;-81
2023/10/29 06:01:10;;;;;;;0.00;0.00;;;11.50;43.10;;;;;;5021426;28;20129;-81
2023/10/29 06:03:36;;;;;;;0.22;0.20;;;12.60;49.10;;;;;;5021167;28;20443;-82
2023/10/29 06:06:02;;;;;;;0.00;0.00;;;11.30;64.90;;;;;;5020606;28;20042;-81
2023/10/29 06:08:27;;;;;;;0.20;0.20;;;11.40;90.40;;;;;;5020647;28;20042;-80
2023/10/29 06:10:53;;;;;;;0.00;0.00;;;11.40;98.50;;;;;;5019651;28;20034;-81
2023/10/29 06:13:18;;;;;;;0.47;0.47;;;11.40;99.90;;;;;;5019969;28;20396;-81
2023/10/29 06:15:44;;;;;;;0.00;0.00;;;11.50;99.90;;;;;;5020682;28;20042;-81
2023/10/29 06:18:10;;;;;;;0.00;0.00;;;11.60;99.90;;;;;;5021065;28;20540;-81
2023/10/29 06:20:39;;;;;;;0.20;0.15;;;11.50;99.90;;;;;;5019323;28;20049;-81
2023/10/29 06:23:05;;;;;;;0.00;0.00;;;11.60;99.90;;;;;;5021032;28;20037;-82
2023/10/29 06:25:30;;;;;;;0.00;0.00;;;11.50;99.90;;;;;;5021361;28;20403;-81
2023/10/29 06:27:56;;;;;;;0.20;0.10;;;11.60;99.90;;;;;;5020083;28;20038;-81
2023/10/29 06:30:22;;;;;;;0.00;0.00;;;11.70;99.90;;;;;;5020448;28;20502;-81
2023/10/29 06:32:47;;;;;;;0.00;0.00;;;11.80;99.90;;;;;;5019411;28;20129;-81
2023/10/29 06:35:13;;;;;;;0.00;0.00;;;11.80;31.50;;;;;;5020362;28;20038;-82
2023/10/29 06:37:39;;;;;;;0.30;0.22;;;11.90;1.00;;;;;;5020593;28;20042;-81
2023/10/29 06:40:06;;;;;;;0.03;0.03;;;11.90;99.90;;;;;;5019647;28;20407;-81
2023/10/29 06:42:32;;;;;;;2.72;0.70;;;11.90;99.90;;;;;;5019785;28;20037;-81
2023/10/29 06:44:57;;;;;;;0.08;0.05;;;11.90;98.40;;;;;;5019244;28;20041;-81
2023/10/29 06:47:23;;;;;;;0.00;0.00;;;11.90;1.00;;;;;;5017928;28;20042;-81
2023/10/29 06:49:50;;;;;;;0.00;0.00;;;11.90;99.90;;;;;;5020334;28;20068;-82
2023/10/29 06:52:17;;;;;;;0.00;0.00;;;11.90;1.00;;;;;;5018688;28;20545;-81
2023/10/29 06:54:42;;;;;;;0.00;0.00;;;11.90;1.00;;;;;;5020489;28;20049;-81
2023/10/29 06:57:08;;;;;;;0.00;0.00;;;11.90;99.90;;;;;;5020213;28;20488;-83
2023/10/29 06:59:34;;;;;;;0.00;0.00;;;11.80;99.90;;;;;;5019872;28;20100;-81
2023/10/29 07:01:59;;;;;;;12.27;0.65;;;11.80;99.90;;;;;;5019465;28;20041;-81
2023/10/29 07:04:26;;;;;;;0.00;0.00;;;11.70;1.00;;;;;;5019889;28;20496;-81
2023/10/29 07:06:52;;;;;;;0.00;0.00;;;11.60;1.00;;;;;;5019389;28;20049;-81
2023/10/29 07:09:18;;;;;;;0.00;0.00;;;11.80;1.00;;;;;;5021107;28;20042;-81
2023/10/29 07:11:44;;;;;;;0.00;0.00;;;11.80;99.90;;;;;;5020788;28;20042;-81
2023/10/29 07:14:11;;;;;;;0.28;0.10;;;12.00;99.90;;;;;;5021774;28;20403;-81
2023/10/29 07:16:37;;;;;;;0.10;0.10;;;12.10;1.00;;;;;;5021519;28;20042;-82
2023/10/29 07:19:04;;;;;;;0.10;0.10;;;12.10;1.00;;;;;;5019539;28;20089;-81
2023/10/29 07:21:30;;;;;;;0.03;0.03;;;12.10;99.90;;;;;;5018476;28;20042;-80
2023/10/29 07:23:55;;;;;;;0.00;0.00;;;12.10;99.90;;;;;;5018266;28;20104;-80
2023/10/29 07:26:21;;;;;;;0.10;0.10;;;12.20;99.90;;;;;;5019080;28;20550;-80
2023/10/29 07:28:47;;;;;;;0.65;0.60;;;12.20;1.00;;;;;;5018885;28;20088;-80
2023/10/29 07:31:12;;;;;;;0.00;0.00;;;12.20;1.00;;;;;;5019989;28;20053;-80
2023/10/29 07:33:38;;;;;;;0.00;0.00;;;12.30;99.90;;;;;;5019276;28;20476;-80
2023/10/29 07:36:04;;;;;;;0.00;0.00;;;12.60;99.90;;;;;;5019176;28;20107;-81
2023/10/29 07:38:30;;;;;;;0.00;0.00;;;12.30;96.20;;;;;;5050093;28;20427;-80
2023/10/29 07:40:56;;;;;;;0.00;0.00;;;12.30;1.00;;;;;;5019152;28;20038;-81
2023/10/29 07:43:21;;;;;;;0.40;0.40;;;12.30;1.00;;;;;;5019722;28;20098;-80
2023/10/29 07:45:47;;;;;;;0.00;0.00;;;12.40;92.30;;;;;;5019862;28;20060;-80
2023/10/29 07:48:17;;;;;;;0.30;0.28;;;12.40;99.90;;;;;;5051893;28;20373;-80
2023/10/29 07:50:49;;;;;;;0.20;0.20;;;12.50;99.90;;;;;;5019310;28;20050;-80
2023/10/29 07:53:15;;;;;;;0.00;0.00;;;12.60;99.90;;;;;;5018191;28;20499;-80
2023/10/29 07:55:40;;;;;;;0.00;0.00;;;12.60;1.00;;;;;;5019251;28;20057;-80
2023/10/29 07:58:06;;;;;;;0.00;0.00;;;12.70;99.90;;;;;;5016614;28;20074;-80
2023/10/29 08:00:31;;;;;;;0.00;0.00;;;12.70;99.90;;;;;;5018274;28;20042;-80
2023/10/29 08:02:57;;;;;;;0.10;0.00;;;12.90;7.40;;;;;;5021174;28;20038;-80
2023/10/29 08:05:24;;;;;;;0.00;0.00;;;12.70;1.00;;;;;;5023487;28;20096;-80
2023/10/29 08:07:49;;;;;;;0.00;0.00;;;12.60;99.90;;;;;;5022060;28;20049;-80
2023/10/29 08:10:15;;;;;;;0.00;0.00;;;12.60;8.90;;;;;;5021764;28;20038;-80
2023/10/29 08:12:41;;;;;;;0.00;0.00;;;12.60;70.70;;;;;;5037171;28;20038;-80
2023/10/29 08:15:07;;;;;;;0.13;0.10;;;12.50;99.90;;;;;;5023095;28;20046;-80
2023/10/29 08:17:32;;;;;;;0.00;0.00;;;12.50;99.90;;;;;;5021225;28;20076;-80
2023/10/29 08:19:58;;;;;;;0.03;0.00;;;12.40;99.90;;;;;;5020404;28;20100;-79
2023/10/29 08:22:24;;;;;;;0.00;0.00;;;12.40;99.90;;;;;;5019580;28;20069;-80
2023/10/29 08:24:50;;;;;;;0.00;0.00;;;12.40;99.90;;;;;;5021093;28;20042;-80
2023/10/29 08:27:16;;;;;;;0.00;0.00;;;12.50;58.60;;;;;;5020977;28;20116;-80
2023/10/29 08:29:43;;;;;;;0.00;0.00;;;12.60;99.90;;;;;;5020283;28;20487;-80
2023/10/29 08:32:09;;;;;;;3.75;0.88;;;12.60;1.00;;;;;;5019680;28;20050;-80
2023/10/29 08:34:35;;;;;;;0.00;0.00;;;12.60;1.00;;;;;;5019681;28;20045;-80
2023/10/29 08:37:00;;;;;;;0.00;0.00;;;12.50;1.00;;;;;;5012876;28;20049;-80
2023/10/29 08:39:27;;;;;;;0.00;0.00;;;12.60;1.00;;;;;;5019929;28;20442;-80
2023/10/29 08:41:53;;;;;;;0.00;0.00;;;12.70;99.90;;;;;;5018237;28;20054;-80
2023/10/29 08:44:19;;;;;;;0.10;0.10;;;12.60;99.90;;;;;;5021191;28;20096;-80
2023/10/29 08:46:45;;;;;;;0.00;0.00;;;12.70;99.90;;;;;;5018272;28;20479;-79
2023/10/29 08:49:11;;;;;;;0.00;0.00;;;12.70;99.90;;;;;;5019758;28;20053;-80
2023/10/29 08:51:37;;;;;;;0.17;0.17;;;13.90;1.00;;;;;;5020701;28;20041;-80
2023/10/29 08:54:03;;;;;;;0.00;0.00;;;12.80;99.90;;;;;;5020099;28;20030;-80
2023/10/29 08:56:33;;;;;;;0.00;0.00;;;12.70;99.90;;;;;;5051086;28;20080;-80
2023/10/29 08:58:59;;;;;;;0.00;0.00;;;12.80;99.90;;;;;;5019998;28;20068;-80
2023/10/29 09:01:24;;;;;;;0.00;0.00;;;12.80;99.90;;;;;;5019105;28;20495;-79
2023/10/29 09:03:50;;;;;;;0.00;0.00;;;12.80;99.90;;;;;;5020311;28;20093;-80
2023/10/29 09:06:16;;;;;;;0.00;0.00;;;12.80;99.90;;;;;;5019501;28;20038;-79
2023/10/29 09:08:41;;;;;;;0.00;0.00;;;12.90;99.90;;;;;;5019327;28;20046;-80
2023/10/29 09:11:13;;;;;;;0.10;0.10;;;13.20;99.90;;;;;;5019138;28;20046;-80
2023/10/29 09:13:39;;;;;;;0.00;0.00;;;13.20;99.90;;;;;;5018909;28;20448;-79
2023/10/29 09:16:05;;;;;;;0.00;0.00;;;13.50;99.90;;;;;;5019044;28;20034;-80
2023/10/29 09:18:30;;;;;;;1.33;1.00;;;13.80;46.20;;;;;;5018995;28;20073;-80
2023/10/29 09:20:56;;;;;;;0.00;0.00;;;14.00;1.00;;;;;;5019478;28;20084;-80
2023/10/29 09:23:23;;;;;;;0.20;0.20;;;13.90;1.00;;;;;;5019050;28;20046;-80
2023/10/29 09:25:49;;;;;;;0.00;0.00;;;13.90;1.00;;;;;;5019330;28;20084;-79
2023/10/29 09:28:15;;;;;;;0.10;0.10;;;13.70;1.00;;;;;;5018725;28;20050;-80
2023/10/29 09:30:42;;;;;;;0.00;0.00;;;13.60;1.00;;;;;;5018050;28;20500;-79
2023/10/29 09:33:08;;;;;;;0.45;0.28;;;13.70;1.00;;;;;;5019728;28;20117;-80
2023/10/29 09:35:37;;;;;;;0.00;0.00;;;13.50;1.00;;;;;;5018931;28;20054;-80
2023/10/29 09:38:03;;;;;;;0.00;0.00;;;13.50;1.00;;;;;;5016611;28;20060;-80
2023/10/29 09:40:29;;;;;;;0.00;0.00;;;13.40;1.00;;;;;;5017099;28;20038;-80
2023/10/29 09:42:59;;;;;;;0.00;0.00;;;13.50;1.00;;;;;;5019107;28;20053;-80
2023/10/29 09:45:26;;;;;;;0.00;0.00;;;13.40;1.00;;;;;;5018828;28;20058;-79
2023/10/29 09:47:58;;;;;;;0.00;0.00;;;13.60;1.00;;;;;;5018798;28;20049;-80
2023/10/29 09:50:24;;;;;;;0.10;0.10;;;13.70;1.00;;;;;;5019195;28;20041;-80
2023/10/29 09:52:50;;;;;;;0.00;0.00;;;14.10;1.00;;;;;;5018385;28;20117;-79
2023/10/29 09:55:20;;;;;;;0.00;0.00;;;14.30;1.00;;;;;;5018749;28;20577;-79
2023/10/29 09:57:48;;;;;;;0.20;0.20;;;14.50;1.00;;;;;;5018659;28;20054;-80
2023/10/29 10:00:17;;;;;;;1.00;0.55;;;14.60;99.90;;;;;;5019226;28;20136;-80
2023/10/29 10:02:50;;;;;;;0.00;0.00;;;14.80;99.90;;;;;;5018768;28;20054;-80
2023/10/29 10:05:19;;;;;;;0.00;0.00;;;14.90;99.90;;;;;;5019318;28;20041;-79
2023/10/29 10:07:45;;;;;;;0.00;0.00;;;15.00;99.90;;;;;;5018508;28;20073;-80
2023/10/29 10:10:10;;;;;;;0.00;0.00;;;15.10;99.90;;;;;;5018664;28;20069;-80
2023/10/29 10:12:46;;;;;;;0.65;0.45;;;14.80;99.90;;;;;;5019165;28;20044;-79
2023/10/29 10:15:13;;;;;;;0.00;0.00;;;14.70;99.90;;;;;;5011724;28;20077;-80
2023/10/29 10:17:44;;;;;;;0.00;0.00;;;14.60;99.90;;;;;;5018871;28;20041;-80
2023/10/29 10:20:11;;;;;;;0.13;0.13;;;14.70;99.90;;;;;;5018563;28;20380;-79
2023/10/29 10:22:37;;;;;;;0.00;0.00;;;14.70;99.90;;;;;;5018161;28;20046;-80
2023/10/29 10:25:03;;;;;;;0.73;0.60;;;14.70;99.90;;;;;;5016957;28;20472;-81
2023/10/29 10:27:29;;;;;;;0.00;0.00;;;14.70;99.90;;;;;;5018585;28;20046;-80
2023/10/29 10:29:55;;;;;;;1.55;1.13;;;14.80;99.90;;;;;;5019304;28;20034;-80
2023/10/29 10:32:24;;;;;;;0.00;0.00;;;14.50;99.90;;;;;;5018930;28;20510;-80
2023/10/29 10:34:52;;;;;;;0.08;0.05;;;14.50;99.90;;;;;;5018366;28;20042;-81
2023/10/29 10:37:18;;;;;;;0.55;0.55;;;14.50;99.90;;;;;;5019190;28;20880;-81
2023/10/29 10:39:43;;;;;;;0.15;0.15;;;14.50;99.90;;;;;;5018746;28;20045;-80
2023/10/29 10:42:09;;;;;;;0.00;0.00;;;14.40;99.90;;;;;;5018164;28;20073;-81
2023/10/29 10:44:36;;;;;;;0.00;0.00;;;14.30;99.90;;;;;;5017965;28;20099;-80
2023/10/29 10:47:03;;;;;;;0.00;0.00;;;14.30;99.90;;;;;;5017863;28;20097;-80
2023/10/29 10:49:31;;;;;;;0.00;0.00;;;14.30;99.90;;;;;;5018416;28;20049;-81
2023/10/29 10:51:59;;;;;;;0.00;0.00;;;14.20;99.90;;;;;;5018322;28;20125;-81
2023/10/29 10:54:25;;;;;;;0.00;0.00;;;14.20;99.90;;;;;;5017939;28;20046;-80
2023/10/29 10:56:52;;;;;;;0.57;0.52;;;14.20;99.90;;;;;;5018038;28;20053;-80
2023/10/29 10:59:19;;;;;;;0.00;0.00;;;14.30;99.90;;;;;;5018684;28;20497;-80
2023/10/29 11:01:46;;;;;;;0.00;0.00;;;14.40;99.90;;;;;;5018316;28;20038;-81
2023/10/29 11:04:12;;;;;;;0.00;0.00;;;14.60;99.90;;;;;;5013690;28;20050;-78
2023/10/29 11:06:39;;;;;;;0.00;0.00;;;14.50;99.90;;;;;;5014381;28;20040;-79
2023/10/29 11:09:12;;;;;;;0.00;0.00;;;14.60;99.90;;;;;;5013724;28;20050;-79
2023/10/29 11:11:44;;;;;;;0.00;0.00;;;14.60;99.90;;;;;;5013316;28;20063;-79
2023/10/29 11:14:12;;;;;;;3.72;0.90;;;14.90;99.90;;;;;;5009712;28;20073;-79
2023/10/29 11:16:58;;;;;;;1.75;0.43;;;14.50;99.90;;;;;;5014446;28;20091;-79
2023/10/29 11:19:33;;;;;;;;;;;14.60;99.90;;;;;;5012766;28;20045;-79
2023/10/29 11:22:16;;;;;;;0.00;0.00;;;14.60;99.90;;;;;;5013088;28;19952;-79
2023/10/29 11:24:43;;;;;;;0.60;0.55;;;14.70;99.90;;;;;;5014692;28;20049;-79
2023/10/29 11:27:46;;;;;;;1.95;0.47;;;14.70;99.90;;;;;;5014686;28;20041;-79
2023/10/29 11:30:20;;;;;;;0.00;0.00;;;14.90;99.90;;;;;;5013867;28;20471;-79
2023/10/29 11:33:12;;;;;;;19.75;1.15;;;15.10;99.90;;;;;;5014358;28;20145;-79
2023/10/29 11:35:40;;;;;;;0.20;0.17;;;15.10;99.90;;;;;;5006523;28;20046;-79
2023/10/29 11:38:33;;;;;;;2.83;0.38;;;15.20;99.90;;;;;;5014793;28;20053;-80
2023/10/29 11:40:59;;;;;;;5.72;0.85;;;15.20;99.90;;;;;;5015706;28;20050;-80
2023/10/29 11:43:25;;;;;;;1.17;0.80;;;15.30;99.90;;;;;;5017214;28;20084;-80
2023/10/29 11:45:58;;;;;;;0.93;0.80;;;15.30;99.90;;;;;;5017496;28;20484;-80
2023/10/29 11:48:25;;;;;;;0.25;0.03;;;15.10;99.90;;;;;;5017612;28;20185;-80
2023/10/29 11:51:14;;;;;;;0.00;0.00;;;15.10;99.90;;;;;;5017334;28;20052;-80
2023/10/29 11:53:39;;;;;;;0.47;0.47;;;14.90;99.90;;;;;;5015418;28;20042;-80
2023/10/29 11:56:09;;;;;;;3.53;0.70;;;15.00;99.90;;;;;;5016212;28;20505;-80
2023/10/29 11:58:35;;;;;;;2.25;0.47;;;14.90;99.90;;;;;;5016982;28;20057;-80
2023/10/29 12:01:02;;;;;;;0.00;0.00;;;14.90;99.90;;;;;;5016384;28;20117;-81
2023/10/29 12:03:32;;;;;;;0.00;0.00;;;14.90;99.90;;;;;;5016953;28;20088;-80
2023/10/29 12:05:57;;;;;;;0.10;0.10;;;15.00;99.90;;;;;;5017982;28;20046;-80
2023/10/29 12:08:24;;;;;;;6.82;1.55;;;14.90;99.90;;;;;;5017874;28;20045;-80
2023/10/29 12:10:50;;;;;;;0.00;0.00;;;14.90;99.90;;;;;;5017235;28;20113;-81
2023/10/29 12:13:19;;;;;;;0.00;0.00;;;14.90;99.90;;;;;;5017717;28;20117;-80
2023/10/29 12:15:54;;;;;;;0.00;0.00;;;14.80;99.90;;;;;;5017350;28;20057;-80
2023/10/29 12:18:21;;;;;;;0.10;0.10;;;14.70;99.90;;;;;;5017569;28;20483;-80
2023/10/29 12:20:47;;;;;;;1.40;0.60;;;14.80;99.90;;;;;;5017053;28;20057;-80
2023/10/29 12:23:13;;;;;;;0.00;0.00;;;14.90;99.90;;;;;;5017269;28;20550;-81
2023/10/29 12:25:39;;;;;;;0.05;0.05;;;14.90;99.90;;;;;;5016316;28;20038;-80
2023/10/29 12:28:08;;;;;;;0.00;0.00;;;15.00;99.90;;;;;;5016447;28;20077;-80
2023/10/29 12:30:41;;;;;;;0.22;0.22;;;15.00;99.90;;;;;;5017359;28;20064;-79
2023/10/29 12:33:25;;;;;;;0.25;0.22;;;15.10;99.90;;;;;;5015425;28;20080;-80
2023/10/29 12:35:52;;;;;;;0.00;0.00;;;14.90;99.90;;;;;;5013219;28;20046;-79
2023/10/29 12:38:19;;;;;;;0.00;0.00;;;14.90;99.90;;;;;;5011092;28;20557;-79
2023/10/29 12:41:05;;;;;;;0.10;0.05;;;15.00;99.90;;;;;;5016873;28;20421;-80
2023/10/29 12:43:40;;;;;;;;;;;15.00;99.90;;;;;;5017151;28;20469;-80
2023/10/29 12:46:09;;;;;;;0.17;0.17;;;15.10;99.90;;;;;;5011439;28;19933;-80
2023/10/29 12:48:36;;;;;;;2.30;0.60;;;15.20;99.90;;;;;;5018883;28;20057;-80